sensor_id;sensor_type;location;lat;lon;timestamp;P1;durP1;ratioP1;P2;durP2;ratioP2
7585;SDS011;12459;42.646;23.292;2023-07-13T00:12:31;47.13;;;45.00;;
7585;SDS011;12459;42.646;23.292;2023-07-13T00:27:34;50.83;;;48.53;;
7585;SDS011;12459;42.646;23.292;2023-07-13T00:42:36;45.27;;;43.20;;
7585;SDS011;12459;42.646;23.292;2023-07-13T00:57:38;48.57;;;46.37;;
7585;SDS011;12459;42.646;23.292;2023-07-13T01:12:41;44.63;;;42.63;;
7585;SDS011;12459;42.646;23.292;2023-07-13T01:27:42;37.13;;;35.43;;
7585;SDS011;12459;42.646;23.292;2023-07-13T01:42:44;42.00;;;40.10;;
7585;SDS011;12459;42.646;23.292;2023-07-13T01:57:46;41.97;;;40.07;;
7585;SDS011;12459;42.646;23.292;2023-07-13T02:12:48;45.67;;;43.57;;
7585;SDS011;12459;42.646;23.292;2023-07-13T02:27:52;39.43;;;37.63;;
7585;SDS011;12459;42.646;23.292;2023-07-13T02:42:54;45.03;;;42.97;;
7585;SDS011;12459;42.646;23.292;2023-07-13T02:57:55;44.00;;;42.00;;
7585;SDS011;12459;42.646;23.292;2023-07-13T03:12:58;46.93;;;44.83;;
7585;SDS011;12459;42.646;23.292;2023-07-13T03:28:00;43.10;;;41.10;;
7585;SDS011;12459;42.646;23.292;2023-07-13T03:43:01;43.73;;;41.73;;
7585;SDS011;12459;42.646;23.292;2023-07-13T04:13:27;37.03;;;35.33;;
7585;SDS011;12459;42.646;23.292;2023-07-13T04:28:29;44.77;;;42.77;;
7585;SDS011;12459;42.646;23.292;2023-07-13T04:43:32;41.57;;;39.67;;
7585;SDS011;12459;42.646;23.292;2023-07-13T04:58:34;44.53;;;42.53;;
7585;SDS011;12459;42.646;23.292;2023-07-13T05:13:36;47.73;;;45.53;;
7585;SDS011;12459;42.646;23.292;2023-07-13T05:28:38;53.73;;;51.30;;
7585;SDS011;12459;42.646;23.292;2023-07-13T05:43:40;56.43;;;53.93;;
7585;SDS011;12459;42.646;23.292;2023-07-13T05:58:41;58.43;;;55.83;;
7585;SDS011;12459;42.646;23.292;2023-07-13T06:13:43;54.03;;;51.60;;
7585;SDS011;12459;42.646;23.292;2023-07-13T06:28:46;57.27;;;54.67;;
7585;SDS011;12459;42.646;23.292;2023-07-13T06:43:48;59.60;;;56.90;;
7585;SDS011;12459;42.646;23.292;2023-07-13T06:58:49;61.93;;;59.13;;
7585;SDS011;12459;42.646;23.292;2023-07-13T07:13:51;65.80;;;62.87;;
7585;SDS011;12459;42.646;23.292;2023-07-13T07:28:54;64.83;;;61.93;;
7585;SDS011;12459;42.646;23.292;2023-07-13T07:44:16;63.03;;;60.23;;
7585;SDS011;12459;42.646;23.292;2023-07-13T07:59:18;57.20;;;54.60;;
7585;SDS011;12459;42.646;23.292;2023-07-13T08:29:39;63.03;;;60.23;;
7585;SDS011;12459;42.646;23.292;2023-07-13T08:59:48;69.87;;;66.73;;
7585;SDS011;12459;42.646;23.292;2023-07-13T09:14:52;70.80;;;67.60;;
7585;SDS011;12459;42.646;23.292;2023-07-13T09:45:27;69.40;;;66.30;;
7585;SDS011;12459;42.646;23.292;2023-07-13T10:00:31;68.60;;;65.53;;
7585;SDS011;12459;42.646;23.292;2023-07-13T10:15:33;72.67;;;69.40;;
7585;SDS011;12459;42.646;23.292;2023-07-13T10:30:35;74.83;;;71.47;;
7585;SDS011;12459;42.646;23.292;2023-07-13T10:45:42;81.27;;;77.63;;
7585;SDS011;12459;42.646;23.292;2023-07-13T11:00:57;74.67;;;71.30;;
7585;SDS011;12459;42.646;23.292;2023-07-13T11:31:19;83.27;;;79.57;;
7585;SDS011;12459;42.646;23.292;2023-07-13T11:46:26;85.03;;;81.23;;
7585;SDS011;12459;42.646;23.292;2023-07-13T12:01:30;77.23;;;73.73;;
7585;SDS011;12459;42.646;23.292;2023-07-13T12:16:34;73.03;;;69.73;;
7585;SDS011;12459;42.646;23.292;2023-07-13T12:31:39;80.27;;;76.67;;
7585;SDS011;12459;42.646;23.292;2023-07-13T12:46:54;81.50;;;77.83;;
7585;SDS011;12459;42.646;23.292;2023-07-13T13:02:21;78.07;;;74.57;;
7585;SDS011;12459;42.646;23.292;2023-07-13T13:17:30;79.17;;;75.63;;
7585;SDS011;12459;42.646;23.292;2023-07-13T13:32:33;78.20;;;74.67;;
7585;SDS011;12459;42.646;23.292;2023-07-13T13:47:34;73.37;;;70.07;;
7585;SDS011;12459;42.646;23.292;2023-07-13T14:02:38;78.80;;;75.30;;
7585;SDS011;12459;42.646;23.292;2023-07-13T14:17:39;77.20;;;73.73;;
7585;SDS011;12459;42.646;23.292;2023-07-13T14:32:45;80.73;;;77.13;;
7585;SDS011;12459;42.646;23.292;2023-07-13T14:47:48;76.43;;;73.00;;
7585;SDS011;12459;42.646;23.292;2023-07-13T15:02:51;71.73;;;68.53;;
7585;SDS011;12459;42.646;23.292;2023-07-13T15:17:56;77.20;;;73.73;;
7585;SDS011;12459;42.646;23.292;2023-07-13T15:33:00;75.43;;;72.03;;
7585;SDS011;12459;42.646;23.292;2023-07-13T16:03:19;75.63;;;72.23;;
7585;SDS011;12459;42.646;23.292;2023-07-13T16:18:22;78.30;;;74.80;;
7585;SDS011;12459;42.646;23.292;2023-07-13T16:33:24;72.57;;;69.30;;
7585;SDS011;12459;42.646;23.292;2023-07-13T16:48:26;75.53;;;72.13;;
7585;SDS011;12459;42.646;23.292;2023-07-13T17:03:31;70.27;;;67.10;;
7585;SDS011;12459;42.646;23.292;2023-07-13T17:18:34;69.70;;;66.57;;
7585;SDS011;12459;42.646;23.292;2023-07-13T17:33:39;74.20;;;70.90;;
7585;SDS011;12459;42.646;23.292;2023-07-13T17:48:43;71.20;;;68.00;;
7585;SDS011;12459;42.646;23.292;2023-07-13T18:03:50;66.40;;;63.40;;
7585;SDS011;12459;42.646;23.292;2023-07-13T18:18:55;73.80;;;70.50;;
7585;SDS011;12459;42.646;23.292;2023-07-13T18:33:58;68.77;;;65.70;;
7585;SDS011;12459;42.646;23.292;2023-07-13T18:49:03;68.67;;;65.57;;
7585;SDS011;12459;42.646;23.292;2023-07-13T19:04:23;69.07;;;65.97;;
7585;SDS011;12459;42.646;23.292;2023-07-13T19:19:29;62.87;;;60.07;;
7585;SDS011;12459;42.646;23.292;2023-07-13T19:34:30;62.63;;;59.83;;
7585;SDS011;12459;42.646;23.292;2023-07-13T19:49:34;56.97;;;54.40;;
7585;SDS011;12459;42.646;23.292;2023-07-13T20:04:36;61.87;;;59.07;;
7585;SDS011;12459;42.646;23.292;2023-07-13T20:19:38;59.63;;;56.93;;
7585;SDS011;12459;42.646;23.292;2023-07-13T20:34:40;53.27;;;50.87;;
7585;SDS011;12459;42.646;23.292;2023-07-13T20:49:42;61.77;;;59.00;;
7585;SDS011;12459;42.646;23.292;2023-07-13T21:04:44;61.97;;;59.17;;
7585;SDS011;12459;42.646;23.292;2023-07-13T21:19:46;62.80;;;60.00;;
7585;SDS011;12459;42.646;23.292;2023-07-13T21:34:47;62.63;;;59.83;;
7585;SDS011;12459;42.646;23.292;2023-07-13T21:49:49;59.80;;;57.10;;
7585;SDS011;12459;42.646;23.292;2023-07-13T22:04:51;62.00;;;59.20;;
7585;SDS011;12459;42.646;23.292;2023-07-13T22:19:53;57.67;;;55.07;;
7585;SDS011;12459;42.646;23.292;2023-07-13T22:34:54;55.17;;;52.67;;
7585;SDS011;12459;42.646;23.292;2023-07-13T22:49:56;57.37;;;54.77;;
7585;SDS011;12459;42.646;23.292;2023-07-13T23:04:58;47.67;;;45.47;;
7585;SDS011;12459;42.646;23.292;2023-07-13T23:20:13;52.00;;;49.67;;
7585;SDS011;12459;42.646;23.292;2023-07-13T23:35:27;53.10;;;50.70;;
7585;SDS011;12459;42.646;23.292;2023-07-13T23:50:29;51.67;;;49.37;;
